UMZ9151 DNMM-DNYO
Flight info
| Callsign | UMZ9151 |
|---|---|
| Flight time | 2h 7m |
| Altitude | 17000 |
| Route | UMUNA1Q UMUNA DCT KONEB UT457 APIRO |
| Aircraft | AT76/M-SDFGIRY/S |
Departure
| Time | 2026-04-21 19:16 |
|---|---|
| Airport | Murtala Muhammed International Airport (DNMM) |
Arrival
| Time | 2026-04-21 21:24 |
|---|---|
| Airport | Yola Airport (DNYO) |
| Time | Latitude | Longitude | Altitude | Speed | Heading |
|---|---|---|---|---|---|
| 2026-04-21 19:10 | 6.59169 | 3.33169 | 126 ft | 0 kts | 326° |
| 2026-04-21 19:14 | 6.59185 | 3.33157 | 123 ft | 10 kts | 319° |
| 2026-04-21 19:14 | 6.59180 | 3.33095 | 121 ft | 9 kts | 245° |
| 2026-04-21 19:15 | 6.59154 | 3.33041 | 125 ft | 8 kts | 243° |
| 2026-04-21 19:15 | 6.59133 | 3.32997 | 123 ft | 8 kts | 249° |
| 2026-04-21 19:15 | 6.59102 | 3.32917 | 126 ft | 11 kts | 236° |
| 2026-04-21 19:15 | 6.59038 | 3.32892 | 126 ft | 12 kts | 181° |
| 2026-04-21 19:16 | 6.58715 | 3.32897 | 123 ft | 76 kts | 180° |
| 2026-04-21 19:16 | 6.58007 | 3.32904 | 138 ft | 122 kts | 177° |
| 2026-04-21 19:16 | 6.57138 | 3.32943 | 497 ft | 131 kts | 175° |
| 2026-04-21 19:16 | 6.56226 | 3.32987 | 1023 ft | 128 kts | 179° |
| 2026-04-21 19:17 | 6.54371 | 3.33023 | 1916 ft | 139 kts | 175° |
| 2026-04-21 19:17 | 6.53582 | 3.33554 | 2360 ft | 150 kts | 114° |
| 2026-04-21 19:17 | 6.53473 | 3.34585 | 2796 ft | 148 kts | 95° |
| 2026-04-21 19:18 | 6.53466 | 3.35629 | 3253 ft | 150 kts | 92° |
| 2026-04-21 19:18 | 6.53488 | 3.36661 | 3728 ft | 149 kts | 90° |
| 2026-04-21 19:18 | 6.53532 | 3.37700 | 4235 ft | 147 kts | 88° |
| 2026-04-21 19:18 | 6.53579 | 3.38721 | 4726 ft | 144 kts | 87° |
| 2026-04-21 19:19 | 6.53627 | 3.39723 | 5199 ft | 142 kts | 86° |
| 2026-04-21 19:19 | 6.53672 | 3.40711 | 5643 ft | 141 kts | 87° |
| 2026-04-21 19:19 | 6.53709 | 3.41694 | 6072 ft | 140 kts | 86° |
| 2026-04-21 19:19 | 6.53744 | 3.42668 | 6475 ft | 139 kts | 87° |
| 2026-04-21 19:20 | 6.53776 | 3.43639 | 6882 ft | 139 kts | 87° |
| 2026-04-21 19:20 | 6.53809 | 3.44601 | 7278 ft | 137 kts | 87° |
| 2026-04-21 19:20 | 6.53843 | 3.45554 | 7666 ft | 135 kts | 87° |
| 2026-04-21 19:20 | 6.53873 | 3.46482 | 8042 ft | 134 kts | 88° |
| 2026-04-21 19:21 | 6.53904 | 3.47420 | 8408 ft | 134 kts | 87° |
| 2026-04-21 19:21 | 6.53935 | 3.48355 | 8790 ft | 134 kts | 87° |
| 2026-04-21 19:21 | 6.53963 | 3.49287 | 9181 ft | 133 kts | 88° |
| 2026-04-21 19:21 | 6.53994 | 3.50216 | 9581 ft | 132 kts | 88° |
| 2026-04-21 19:22 | 6.54024 | 3.51141 | 9938 ft | 133 kts | 88° |
| 2026-04-21 19:22 | 6.54055 | 3.52071 | 10278 ft | 133 kts | 88° |
| 2026-04-21 19:22 | 6.54084 | 3.53028 | 10544 ft | 142 kts | 88° |
| 2026-04-21 19:22 | 6.54109 | 3.54061 | 10759 ft | 154 kts | 88° |
| 2026-04-21 19:23 | 6.54133 | 3.55177 | 10982 ft | 165 kts | 88° |
| 2026-04-21 19:23 | 6.54160 | 3.56366 | 11198 ft | 175 kts | 89° |
| 2026-04-21 19:23 | 6.54193 | 3.57624 | 11409 ft | 184 kts | 88° |
| 2026-04-21 19:23 | 6.54235 | 3.58934 | 11625 ft | 191 kts | 88° |
| 2026-04-21 19:24 | 6.54283 | 3.60299 | 11841 ft | 198 kts | 88° |
| 2026-04-21 19:24 | 6.54346 | 3.61706 | 12061 ft | 204 kts | 87° |
| 2026-04-21 19:24 | 6.54415 | 3.63132 | 12273 ft | 209 kts | 88° |
| 2026-04-21 19:24 | 6.54471 | 3.64610 | 12489 ft | 213 kts | 88° |
| 2026-04-21 19:25 | 6.54711 | 3.66066 | 12776 ft | 212 kts | 68° |
| 2026-04-21 19:25 | 6.55374 | 3.67375 | 13111 ft | 209 kts | 64° |
| 2026-04-21 19:25 | 6.56060 | 3.68666 | 13443 ft | 208 kts | 65° |
| 2026-04-21 19:25 | 6.56726 | 3.69960 | 13750 ft | 208 kts | 66° |
| 2026-04-21 19:26 | 6.57355 | 3.71262 | 14041 ft | 207 kts | 67° |
| 2026-04-21 19:26 | 6.57973 | 3.72582 | 14333 ft | 209 kts | 67° |
| 2026-04-21 19:26 | 6.58591 | 3.73908 | 14643 ft | 210 kts | 67° |
| 2026-04-21 19:26 | 6.59211 | 3.75241 | 14931 ft | 211 kts | 67° |
| 2026-04-21 19:27 | 6.59834 | 3.76577 | 15232 ft | 211 kts | 67° |
| 2026-04-21 19:27 | 6.60441 | 3.77875 | 15531 ft | 212 kts | 67° |
| 2026-04-21 19:27 | 6.61066 | 3.79215 | 15836 ft | 212 kts | 67° |
| 2026-04-21 19:27 | 6.61693 | 3.80557 | 16147 ft | 212 kts | 67° |
| 2026-04-21 19:28 | 6.62322 | 3.81902 | 16467 ft | 214 kts | 66° |
| 2026-04-21 19:28 | 6.62963 | 3.83268 | 16699 ft | 220 kts | 66° |
| 2026-04-21 19:28 | 6.63625 | 3.84699 | 16773 ft | 231 kts | 66° |
| 2026-04-21 19:28 | 6.64317 | 3.86199 | 16809 ft | 242 kts | 66° |
| 2026-04-21 19:29 | 6.65041 | 3.87761 | 16823 ft | 251 kts | 66° |
| 2026-04-21 19:29 | 6.65794 | 3.89373 | 16834 ft | 257 kts | 66° |
| 2026-04-21 19:29 | 6.66540 | 3.90971 | 16836 ft | 254 kts | 66° |
| 2026-04-21 19:29 | 6.67285 | 3.92562 | 16835 ft | 250 kts | 66° |
| 2026-04-21 19:30 | 6.68025 | 3.94141 | 16836 ft | 248 kts | 66° |
| 2026-04-21 19:30 | 6.68755 | 3.95701 | 16838 ft | 246 kts | 66° |
| 2026-04-21 19:30 | 6.69480 | 3.97253 | 16837 ft | 244 kts | 66° |
| 2026-04-21 19:30 | 6.70202 | 3.98799 | 16836 ft | 243 kts | 66° |
| 2026-04-21 19:31 | 6.70920 | 4.00336 | 16840 ft | 242 kts | 66° |
| 2026-04-21 19:31 | 6.71637 | 4.01866 | 16834 ft | 242 kts | 66° |
| 2026-04-21 19:31 | 6.72351 | 4.03398 | 16836 ft | 241 kts | 66° |
| 2026-04-21 19:31 | 6.73058 | 4.04929 | 16844 ft | 241 kts | 68° |
| 2026-04-21 19:32 | 6.73754 | 4.06475 | 16843 ft | 251 kts | 67° |
| 2026-04-21 19:32 | 6.74504 | 4.08099 | 16842 ft | 260 kts | 67° |
| 2026-04-21 19:32 | 6.75281 | 4.09773 | 16842 ft | 268 kts | 67° |
| 2026-04-21 19:32 | 6.76080 | 4.11487 | 16842 ft | 273 kts | 67° |
| 2026-04-21 19:33 | 6.76618 | 4.12644 | 16842 ft | 277 kts | 67° |
| 2026-04-21 19:33 | 6.77724 | 4.15009 | 16844 ft | 281 kts | 67° |
| 2026-04-21 19:33 | 6.78560 | 4.16800 | 16845 ft | 284 kts | 67° |
| 2026-04-21 19:33 | 6.79397 | 4.18589 | 16838 ft | 286 kts | 66° |
| 2026-04-21 19:34 | 6.80239 | 4.20402 | 16845 ft | 287 kts | 66° |
| 2026-04-21 19:34 | 6.81093 | 4.22232 | 16846 ft | 289 kts | 66° |
| 2026-04-21 19:34 | 6.81946 | 4.24061 | 16847 ft | 290 kts | 67° |
| 2026-04-21 19:34 | 6.82809 | 4.25907 | 16847 ft | 290 kts | 67° |
| 2026-04-21 19:35 | 6.83665 | 4.27749 | 16846 ft | 291 kts | 66° |
| 2026-04-21 19:35 | 6.85387 | 4.31440 | 16843 ft | 292 kts | 66° |
| 2026-04-21 19:35 | 6.86248 | 4.33292 | 16845 ft | 292 kts | 67° |
| 2026-04-21 19:36 | 6.87112 | 4.35140 | 16846 ft | 292 kts | 66° |
| 2026-04-21 19:36 | 6.87970 | 4.36992 | 16846 ft | 292 kts | 67° |
| 2026-04-21 19:36 | 6.88837 | 4.38839 | 16853 ft | 292 kts | 66° |
| 2026-04-21 19:36 | 6.89691 | 4.40693 | 16853 ft | 291 kts | 68° |
| 2026-04-21 19:37 | 6.90464 | 4.42544 | 16852 ft | 291 kts | 70° |
| 2026-04-21 19:37 | 6.91204 | 4.44443 | 16850 ft | 291 kts | 70° |
| 2026-04-21 19:37 | 6.91937 | 4.46345 | 16850 ft | 291 kts | 70° |
| 2026-04-21 19:37 | 6.92688 | 4.48234 | 16850 ft | 291 kts | 70° |
| 2026-04-21 19:38 | 6.93436 | 4.50122 | 16849 ft | 291 kts | 70° |
| 2026-04-21 19:38 | 6.94184 | 4.52013 | 16850 ft | 290 kts | 70° |
| 2026-04-21 19:38 | 6.94681 | 4.53268 | 16855 ft | 290 kts | 70° |
| 2026-04-21 19:38 | 6.95674 | 4.55777 | 16851 ft | 290 kts | 70° |
| 2026-04-21 19:39 | 6.96421 | 4.57677 | 16853 ft | 290 kts | 70° |
| 2026-04-21 19:39 | 6.97172 | 4.59563 | 16857 ft | 290 kts | 70° |
| 2026-04-21 19:39 | 6.97920 | 4.61453 | 16853 ft | 290 kts | 70° |
| 2026-04-21 19:39 | 6.98665 | 4.63347 | 16854 ft | 290 kts | 70° |
| 2026-04-21 19:40 | 6.99404 | 4.65210 | 16857 ft | 290 kts | 70° |
| 2026-04-21 19:40 | 7.00151 | 4.67098 | 16857 ft | 290 kts | 70° |
| 2026-04-21 19:40 | 7.00894 | 4.68984 | 16855 ft | 290 kts | 70° |
| 2026-04-21 19:40 | 7.01642 | 4.70873 | 16853 ft | 290 kts | 70° |
| 2026-04-21 19:41 | 7.02392 | 4.72763 | 16857 ft | 290 kts | 70° |
| 2026-04-21 19:41 | 7.03139 | 4.74651 | 16858 ft | 290 kts | 70° |
| 2026-04-21 19:41 | 7.03883 | 4.76537 | 16861 ft | 290 kts | 70° |
| 2026-04-21 19:41 | 7.04631 | 4.78428 | 16861 ft | 290 kts | 70° |
| 2026-04-21 19:42 | 7.05378 | 4.80317 | 16856 ft | 290 kts | 70° |
| 2026-04-21 19:42 | 7.06122 | 4.82211 | 16857 ft | 290 kts | 70° |
| 2026-04-21 19:42 | 7.06870 | 4.84095 | 16860 ft | 290 kts | 70° |
| 2026-04-21 19:42 | 7.07617 | 4.85984 | 16855 ft | 290 kts | 70° |
| 2026-04-21 19:43 | 7.08362 | 4.87872 | 16862 ft | 290 kts | 70° |
| 2026-04-21 19:43 | 7.09110 | 4.89761 | 16861 ft | 290 kts | 70° |
| 2026-04-21 19:43 | 7.09844 | 4.91626 | 16866 ft | 290 kts | 70° |
| 2026-04-21 19:43 | 7.10590 | 4.93516 | 16866 ft | 290 kts | 70° |
| 2026-04-21 19:44 | 7.11335 | 4.95408 | 16861 ft | 290 kts | 70° |
| 2026-04-21 19:44 | 7.12083 | 4.97297 | 16865 ft | 290 kts | 70° |
| 2026-04-21 19:44 | 7.12829 | 4.99187 | 16869 ft | 290 kts | 70° |
| 2026-04-21 19:44 | 7.13571 | 5.01078 | 16865 ft | 291 kts | 70° |
| 2026-04-21 19:45 | 7.14319 | 5.02973 | 16869 ft | 291 kts | 70° |
| 2026-04-21 19:45 | 7.15068 | 5.04864 | 16863 ft | 290 kts | 70° |
| 2026-04-21 19:45 | 7.15802 | 5.06732 | 16869 ft | 291 kts | 70° |
| 2026-04-21 19:45 | 7.16548 | 5.08624 | 16865 ft | 291 kts | 70° |
| 2026-04-21 19:46 | 7.17297 | 5.10516 | 16868 ft | 290 kts | 70° |
| 2026-04-21 19:46 | 7.18043 | 5.12409 | 16868 ft | 291 kts | 70° |
| 2026-04-21 19:46 | 7.18793 | 5.14309 | 16868 ft | 291 kts | 70° |
| 2026-04-21 19:46 | 7.19537 | 5.16202 | 16868 ft | 291 kts | 70° |
| 2026-04-21 19:47 | 7.20275 | 5.18072 | 16867 ft | 290 kts | 70° |
| 2026-04-21 19:47 | 7.21018 | 5.19962 | 16873 ft | 290 kts | 70° |
| 2026-04-21 19:47 | 7.21762 | 5.21854 | 16869 ft | 290 kts | 70° |
| 2026-04-21 19:47 | 7.22504 | 5.23738 | 16866 ft | 290 kts | 70° |
| 2026-04-21 19:48 | 7.23246 | 5.25622 | 16871 ft | 289 kts | 70° |
| 2026-04-21 19:48 | 7.23991 | 5.27511 | 16867 ft | 289 kts | 70° |
| 2026-04-21 19:48 | 7.24733 | 5.29397 | 16871 ft | 289 kts | 70° |
| 2026-04-21 19:48 | 7.25473 | 5.31278 | 16865 ft | 289 kts | 70° |
| 2026-04-21 19:49 | 7.26213 | 5.33161 | 16873 ft | 289 kts | 70° |
| 2026-04-21 19:49 | 7.26955 | 5.35047 | 16865 ft | 289 kts | 70° |
| 2026-04-21 19:49 | 7.27689 | 5.36909 | 16867 ft | 289 kts | 70° |
| 2026-04-21 19:49 | 7.28428 | 5.38789 | 16870 ft | 289 kts | 70° |
| 2026-04-21 19:50 | 7.28930 | 5.40060 | 16865 ft | 289 kts | 70° |
| 2026-04-21 19:50 | 7.29910 | 5.42552 | 16868 ft | 289 kts | 70° |
| 2026-04-21 19:50 | 7.30648 | 5.44433 | 16871 ft | 289 kts | 70° |
| 2026-04-21 19:50 | 7.31389 | 5.46314 | 16869 ft | 289 kts | 70° |
| 2026-04-21 19:51 | 7.32130 | 5.48199 | 16868 ft | 289 kts | 70° |
| 2026-04-21 19:51 | 7.32870 | 5.50080 | 16866 ft | 289 kts | 70° |
| 2026-04-21 19:51 | 7.33611 | 5.51966 | 16868 ft | 289 kts | 70° |
| 2026-04-21 19:51 | 7.34353 | 5.53851 | 16865 ft | 289 kts | 70° |
| 2026-04-21 19:52 | 7.35092 | 5.55736 | 16867 ft | 289 kts | 70° |
| 2026-04-21 19:52 | 7.35834 | 5.57624 | 16861 ft | 289 kts | 70° |
| 2026-04-21 19:52 | 7.36575 | 5.59511 | 16868 ft | 289 kts | 70° |
| 2026-04-21 19:52 | 7.37316 | 5.61399 | 16866 ft | 289 kts | 70° |
| 2026-04-21 19:53 | 7.38046 | 5.63255 | 16866 ft | 289 kts | 70° |
| 2026-04-21 19:53 | 7.38787 | 5.65141 | 16863 ft | 289 kts | 70° |
| 2026-04-21 19:53 | 7.39527 | 5.67024 | 16868 ft | 289 kts | 70° |
| 2026-04-21 19:53 | 7.40264 | 5.68908 | 16866 ft | 289 kts | 70° |
| 2026-04-21 19:54 | 7.41003 | 5.70790 | 16860 ft | 289 kts | 70° |
| 2026-04-21 19:54 | 7.41740 | 5.72669 | 16864 ft | 288 kts | 70° |
| 2026-04-21 19:54 | 7.42477 | 5.74548 | 16860 ft | 288 kts | 70° |
| 2026-04-21 19:54 | 7.43215 | 5.76429 | 16867 ft | 288 kts | 70° |
| 2026-04-21 19:55 | 7.43952 | 5.78309 | 16870 ft | 288 kts | 70° |
| 2026-04-21 19:55 | 7.44691 | 5.80192 | 16864 ft | 288 kts | 70° |
| 2026-04-21 19:55 | 7.45419 | 5.82050 | 16871 ft | 288 kts | 70° |
| 2026-04-21 19:55 | 7.46159 | 5.83931 | 16866 ft | 289 kts | 70° |
| 2026-04-21 19:56 | 7.46901 | 5.85819 | 16862 ft | 289 kts | 70° |
| 2026-04-21 19:56 | 7.47640 | 5.87704 | 16862 ft | 289 kts | 70° |
| 2026-04-21 19:56 | 7.48380 | 5.89589 | 16865 ft | 289 kts | 70° |
| 2026-04-21 19:56 | 7.49120 | 5.91478 | 16866 ft | 289 kts | 70° |
| 2026-04-21 19:57 | 7.49861 | 5.93367 | 16865 ft | 289 kts | 70° |
| 2026-04-21 19:57 | 7.50599 | 5.95251 | 16861 ft | 289 kts | 70° |
| 2026-04-21 19:57 | 7.51338 | 5.97138 | 16865 ft | 289 kts | 70° |
| 2026-04-21 19:57 | 7.52081 | 5.99037 | 16860 ft | 289 kts | 70° |
| 2026-04-21 19:58 | 7.52811 | 6.00899 | 16859 ft | 289 kts | 70° |
| 2026-04-21 19:58 | 7.53551 | 6.02787 | 16861 ft | 290 kts | 70° |
| 2026-04-21 19:58 | 7.54290 | 6.04674 | 16862 ft | 289 kts | 70° |
| 2026-04-21 19:58 | 7.55027 | 6.06560 | 16852 ft | 289 kts | 70° |
| 2026-04-21 19:59 | 7.55766 | 6.08447 | 16855 ft | 289 kts | 70° |
| 2026-04-21 19:59 | 7.56505 | 6.10336 | 16859 ft | 289 kts | 70° |
| 2026-04-21 19:59 | 7.56992 | 6.11585 | 16851 ft | 289 kts | 70° |
| 2026-04-21 19:59 | 7.57730 | 6.13471 | 16857 ft | 289 kts | 70° |
| 2026-04-21 20:00 | 7.58469 | 6.15361 | 16854 ft | 289 kts | 70° |
| 2026-04-21 20:00 | 7.59208 | 6.17249 | 16850 ft | 289 kts | 70° |
| 2026-04-21 20:00 | 7.59945 | 6.19138 | 16849 ft | 290 kts | 70° |
| 2026-04-21 20:00 | 7.60685 | 6.21029 | 16845 ft | 290 kts | 70° |
| 2026-04-21 20:01 | 7.61425 | 6.22922 | 16848 ft | 290 kts | 70° |
| 2026-04-21 20:01 | 7.62157 | 6.24792 | 16840 ft | 290 kts | 70° |
| 2026-04-21 20:01 | 7.62905 | 6.26705 | 16839 ft | 290 kts | 70° |
| 2026-04-21 20:01 | 7.63632 | 6.28568 | 16844 ft | 290 kts | 70° |
| 2026-04-21 20:02 | 7.64372 | 6.30461 | 16848 ft | 290 kts | 70° |
| 2026-04-21 20:02 | 7.65111 | 6.32350 | 16838 ft | 290 kts | 70° |
| 2026-04-21 20:02 | 7.65850 | 6.34242 | 16846 ft | 290 kts | 70° |
| 2026-04-21 20:02 | 7.66589 | 6.36133 | 16838 ft | 290 kts | 70° |
| 2026-04-21 20:03 | 7.67327 | 6.38025 | 16835 ft | 290 kts | 70° |
| 2026-04-21 20:03 | 7.68064 | 6.39914 | 16846 ft | 290 kts | 70° |
| 2026-04-21 20:03 | 7.68803 | 6.41807 | 16843 ft | 290 kts | 70° |
| 2026-04-21 20:03 | 7.69542 | 6.43702 | 16840 ft | 290 kts | 70° |
| 2026-04-21 20:04 | 7.70281 | 6.45596 | 16838 ft | 290 kts | 70° |
| 2026-04-21 20:04 | 7.71012 | 6.47467 | 16834 ft | 290 kts | 70° |
| 2026-04-21 20:04 | 7.71751 | 6.49361 | 16836 ft | 290 kts | 70° |
| 2026-04-21 20:04 | 7.72489 | 6.51255 | 16836 ft | 290 kts | 70° |
| 2026-04-21 20:05 | 7.73230 | 6.53152 | 16826 ft | 290 kts | 70° |
| 2026-04-21 20:05 | 7.73968 | 6.55047 | 16835 ft | 290 kts | 70° |
| 2026-04-21 20:05 | 7.74708 | 6.56941 | 16824 ft | 290 kts | 70° |
| 2026-04-21 20:05 | 7.75443 | 6.58829 | 16827 ft | 289 kts | 71° |
| 2026-04-21 20:06 | 7.76120 | 6.60740 | 16825 ft | 289 kts | 73° |
| 2026-04-21 20:06 | 7.76736 | 6.62674 | 16835 ft | 289 kts | 74° |
| 2026-04-21 20:06 | 7.77326 | 6.64610 | 16834 ft | 289 kts | 74° |
| 2026-04-21 20:06 | 7.77923 | 6.66524 | 16828 ft | 289 kts | 73° |
| 2026-04-21 20:07 | 7.78536 | 6.68457 | 16830 ft | 289 kts | 74° |
| 2026-04-21 20:07 | 7.79148 | 6.70388 | 16824 ft | 289 kts | 73° |
| 2026-04-21 20:07 | 7.79760 | 6.72326 | 16829 ft | 289 kts | 73° |
| 2026-04-21 20:07 | 7.80371 | 6.74262 | 16824 ft | 289 kts | 74° |
| 2026-04-21 20:08 | 7.80983 | 6.76197 | 16820 ft | 289 kts | 73° |
| 2026-04-21 20:08 | 7.81593 | 6.78132 | 16813 ft | 289 kts | 73° |
| 2026-04-21 20:08 | 7.82205 | 6.80063 | 16824 ft | 289 kts | 73° |
| 2026-04-21 20:08 | 7.82807 | 6.81973 | 16821 ft | 289 kts | 74° |
| 2026-04-21 20:09 | 7.83417 | 6.83909 | 16815 ft | 289 kts | 73° |
| 2026-04-21 20:09 | 7.84032 | 6.85846 | 16822 ft | 289 kts | 74° |
| 2026-04-21 20:09 | 7.84640 | 6.87782 | 16826 ft | 289 kts | 73° |
| 2026-04-21 20:09 | 7.85251 | 6.89716 | 16816 ft | 289 kts | 74° |
| 2026-04-21 20:10 | 7.85861 | 6.91649 | 16821 ft | 289 kts | 73° |
| 2026-04-21 20:10 | 7.86474 | 6.93586 | 16819 ft | 289 kts | 74° |
| 2026-04-21 20:10 | 7.87084 | 6.95521 | 16821 ft | 289 kts | 73° |
| 2026-04-21 20:10 | 7.87685 | 6.97430 | 16820 ft | 289 kts | 73° |
| 2026-04-21 20:11 | 7.88295 | 6.99367 | 16824 ft | 289 kts | 74° |
| 2026-04-21 20:11 | 7.88905 | 7.01297 | 16816 ft | 289 kts | 74° |
| 2026-04-21 20:11 | 7.89514 | 7.03234 | 16822 ft | 289 kts | 74° |
| 2026-04-21 20:11 | 7.90126 | 7.05170 | 16824 ft | 289 kts | 74° |
| 2026-04-21 20:12 | 7.90735 | 7.07104 | 16814 ft | 289 kts | 74° |
| 2026-04-21 20:12 | 7.91343 | 7.09036 | 16819 ft | 289 kts | 74° |
| 2026-04-21 20:12 | 7.91955 | 7.10975 | 16825 ft | 289 kts | 74° |
| 2026-04-21 20:12 | 7.92558 | 7.12889 | 16822 ft | 289 kts | 74° |
| 2026-04-21 20:13 | 7.93168 | 7.14825 | 16819 ft | 290 kts | 74° |
| 2026-04-21 20:13 | 7.93779 | 7.16762 | 16822 ft | 290 kts | 74° |
| 2026-04-21 20:13 | 7.94394 | 7.18694 | 16815 ft | 290 kts | 73° |
| 2026-04-21 20:13 | 7.95017 | 7.20628 | 16819 ft | 290 kts | 74° |
| 2026-04-21 20:14 | 7.95618 | 7.22572 | 16813 ft | 290 kts | 75° |
| 2026-04-21 20:14 | 7.96224 | 7.24523 | 16823 ft | 290 kts | 74° |
| 2026-04-21 20:14 | 7.96824 | 7.26441 | 16816 ft | 290 kts | 74° |
| 2026-04-21 20:14 | 7.97432 | 7.28378 | 16808 ft | 290 kts | 74° |
| 2026-04-21 20:15 | 7.98042 | 7.30318 | 16820 ft | 290 kts | 74° |
| 2026-04-21 20:15 | 7.98653 | 7.32264 | 16812 ft | 290 kts | 74° |
| 2026-04-21 20:15 | 7.99265 | 7.34208 | 16817 ft | 290 kts | 74° |
| 2026-04-21 20:15 | 7.99868 | 7.36131 | 16819 ft | 290 kts | 74° |
| 2026-04-21 20:16 | 8.00477 | 7.38070 | 16814 ft | 290 kts | 74° |
| 2026-04-21 20:16 | 8.01086 | 7.40009 | 16806 ft | 290 kts | 74° |
| 2026-04-21 20:16 | 8.01697 | 7.41958 | 16815 ft | 290 kts | 74° |
| 2026-04-21 20:16 | 8.02307 | 7.43898 | 16817 ft | 290 kts | 74° |
| 2026-04-21 20:17 | 8.02917 | 7.45842 | 16807 ft | 290 kts | 74° |
| 2026-04-21 20:17 | 8.03527 | 7.47785 | 16815 ft | 290 kts | 74° |
| 2026-04-21 20:17 | 8.04136 | 7.49723 | 16809 ft | 290 kts | 74° |
| 2026-04-21 20:17 | 8.04745 | 7.51666 | 16806 ft | 290 kts | 74° |
| 2026-04-21 20:18 | 8.05149 | 7.52955 | 16808 ft | 290 kts | 74° |
| 2026-04-21 20:18 | 8.05956 | 7.55528 | 16809 ft | 290 kts | 74° |
| 2026-04-21 20:18 | 8.06567 | 7.57467 | 16807 ft | 290 kts | 74° |
| 2026-04-21 20:18 | 8.07187 | 7.59413 | 16809 ft | 290 kts | 73° |
| 2026-04-21 20:19 | 8.07803 | 7.61348 | 16812 ft | 290 kts | 75° |
| 2026-04-21 20:19 | 8.08402 | 7.63295 | 16807 ft | 290 kts | 74° |
| 2026-04-21 20:19 | 8.09008 | 7.65232 | 16804 ft | 290 kts | 74° |
| 2026-04-21 20:19 | 8.09619 | 7.67178 | 16811 ft | 290 kts | 74° |
| 2026-04-21 20:20 | 8.10229 | 7.69118 | 16805 ft | 290 kts | 74° |
| 2026-04-21 20:20 | 8.10840 | 7.71059 | 16813 ft | 290 kts | 74° |
| 2026-04-21 20:20 | 8.11450 | 7.72997 | 16798 ft | 290 kts | 74° |
| 2026-04-21 20:20 | 8.12062 | 7.74940 | 16805 ft | 290 kts | 74° |
| 2026-04-21 20:21 | 8.12673 | 7.76881 | 16808 ft | 290 kts | 74° |
| 2026-04-21 20:21 | 8.13282 | 7.78819 | 16806 ft | 290 kts | 74° |
| 2026-04-21 20:21 | 8.13893 | 7.80766 | 16810 ft | 290 kts | 74° |
| 2026-04-21 20:21 | 8.14503 | 7.82705 | 16803 ft | 290 kts | 74° |
| 2026-04-21 20:22 | 8.15113 | 7.84647 | 16803 ft | 290 kts | 74° |
| 2026-04-21 20:22 | 8.16326 | 7.88503 | 16807 ft | 290 kts | 74° |
| 2026-04-21 20:22 | 8.16935 | 7.90445 | 16799 ft | 290 kts | 74° |
| 2026-04-21 20:23 | 8.17545 | 7.92389 | 16801 ft | 290 kts | 74° |
| 2026-04-21 20:23 | 8.18157 | 7.94331 | 16809 ft | 290 kts | 74° |
| 2026-04-21 20:23 | 8.18766 | 7.96277 | 16806 ft | 290 kts | 74° |
| 2026-04-21 20:23 | 8.19378 | 7.98221 | 16806 ft | 290 kts | 74° |
| 2026-04-21 20:24 | 8.19988 | 8.00165 | 16798 ft | 290 kts | 74° |
| 2026-04-21 20:24 | 8.20589 | 8.02082 | 16810 ft | 290 kts | 74° |
| 2026-04-21 20:24 | 8.21197 | 8.04022 | 16802 ft | 290 kts | 74° |
| 2026-04-21 20:24 | 8.21809 | 8.05963 | 16811 ft | 290 kts | 74° |
| 2026-04-21 20:25 | 8.22417 | 8.07901 | 16813 ft | 288 kts | 76° |
| 2026-04-21 20:25 | 8.22852 | 8.09873 | 16804 ft | 288 kts | 81° |
| 2026-04-21 20:25 | 8.23203 | 8.11869 | 16808 ft | 289 kts | 81° |
| 2026-04-21 20:25 | 8.23567 | 8.13863 | 16809 ft | 289 kts | 80° |
| 2026-04-21 20:26 | 8.23974 | 8.15850 | 16807 ft | 289 kts | 79° |
| 2026-04-21 20:26 | 8.24396 | 8.17832 | 16808 ft | 289 kts | 79° |
| 2026-04-21 20:26 | 8.24837 | 8.19814 | 16810 ft | 289 kts | 78° |
| 2026-04-21 20:26 | 8.25281 | 8.21792 | 16813 ft | 289 kts | 79° |
| 2026-04-21 20:27 | 8.25701 | 8.23776 | 16810 ft | 289 kts | 79° |
| 2026-04-21 20:27 | 8.26116 | 8.25741 | 16812 ft | 289 kts | 79° |
| 2026-04-21 20:27 | 8.26534 | 8.27727 | 16809 ft | 289 kts | 79° |
| 2026-04-21 20:27 | 8.26954 | 8.29713 | 16809 ft | 289 kts | 79° |
| 2026-04-21 20:28 | 8.27373 | 8.31700 | 16798 ft | 289 kts | 79° |
| 2026-04-21 20:28 | 8.27794 | 8.33689 | 16804 ft | 289 kts | 79° |
| 2026-04-21 20:28 | 8.28213 | 8.35678 | 16810 ft | 289 kts | 79° |
| 2026-04-21 20:28 | 8.28631 | 8.37662 | 16811 ft | 289 kts | 79° |
| 2026-04-21 20:29 | 8.29049 | 8.39650 | 16806 ft | 289 kts | 79° |
| 2026-04-21 20:29 | 8.29464 | 8.41609 | 16805 ft | 289 kts | 79° |
| 2026-04-21 20:29 | 8.29882 | 8.43596 | 16807 ft | 289 kts | 79° |
| 2026-04-21 20:29 | 8.30301 | 8.45584 | 16804 ft | 289 kts | 79° |
| 2026-04-21 20:30 | 8.30717 | 8.47567 | 16806 ft | 289 kts | 79° |
| 2026-04-21 20:30 | 8.31137 | 8.49557 | 16809 ft | 289 kts | 79° |
| 2026-04-21 20:30 | 8.31554 | 8.51539 | 16806 ft | 289 kts | 79° |
| 2026-04-21 20:30 | 8.31973 | 8.53529 | 16808 ft | 289 kts | 79° |
| 2026-04-21 20:31 | 8.32391 | 8.55517 | 16808 ft | 289 kts | 79° |
| 2026-04-21 20:31 | 8.32811 | 8.57506 | 16811 ft | 289 kts | 79° |
| 2026-04-21 20:31 | 8.33231 | 8.59500 | 16807 ft | 290 kts | 79° |
| 2026-04-21 20:31 | 8.33644 | 8.61470 | 16807 ft | 290 kts | 79° |
| 2026-04-21 20:32 | 8.34063 | 8.63466 | 16811 ft | 290 kts | 79° |
| 2026-04-21 20:32 | 8.34482 | 8.65461 | 16815 ft | 290 kts | 79° |
| 2026-04-21 20:32 | 8.34901 | 8.67460 | 16814 ft | 290 kts | 79° |
| 2026-04-21 20:32 | 8.35320 | 8.69454 | 16812 ft | 290 kts | 79° |
| 2026-04-21 20:33 | 8.35740 | 8.71456 | 16808 ft | 291 kts | 79° |
| 2026-04-21 20:33 | 8.36160 | 8.73452 | 16808 ft | 291 kts | 79° |
| 2026-04-21 20:33 | 8.36575 | 8.75427 | 16805 ft | 291 kts | 79° |
| 2026-04-21 20:33 | 8.36995 | 8.77427 | 16806 ft | 291 kts | 79° |
| 2026-04-21 20:34 | 8.37419 | 8.79429 | 16805 ft | 292 kts | 79° |
| 2026-04-21 20:34 | 8.37855 | 8.81429 | 16804 ft | 291 kts | 79° |
| 2026-04-21 20:34 | 8.38268 | 8.83432 | 16806 ft | 292 kts | 80° |
| 2026-04-21 20:34 | 8.38685 | 8.85436 | 16811 ft | 292 kts | 79° |
| 2026-04-21 20:35 | 8.39105 | 8.87445 | 16801 ft | 292 kts | 79° |
| 2026-04-21 20:35 | 8.39529 | 8.89448 | 16801 ft | 292 kts | 79° |
| 2026-04-21 20:35 | 8.39950 | 8.91456 | 16806 ft | 292 kts | 79° |
| 2026-04-21 20:35 | 8.40374 | 8.93462 | 16801 ft | 292 kts | 79° |
| 2026-04-21 20:36 | 8.40799 | 8.95471 | 16807 ft | 292 kts | 79° |
| 2026-04-21 20:36 | 8.41220 | 8.97476 | 16803 ft | 292 kts | 79° |
| 2026-04-21 20:36 | 8.41647 | 8.99482 | 16804 ft | 292 kts | 79° |
| 2026-04-21 20:36 | 8.42068 | 9.01468 | 16807 ft | 292 kts | 79° |
| 2026-04-21 20:37 | 8.42495 | 9.03474 | 16799 ft | 292 kts | 79° |
| 2026-04-21 20:37 | 8.42905 | 9.05492 | 16804 ft | 292 kts | 80° |
| 2026-04-21 20:37 | 8.43321 | 9.07507 | 16805 ft | 292 kts | 79° |
| 2026-04-21 20:37 | 8.43739 | 9.09519 | 16806 ft | 292 kts | 79° |
| 2026-04-21 20:38 | 8.44156 | 9.11529 | 16802 ft | 292 kts | 79° |
| 2026-04-21 20:38 | 8.44575 | 9.13539 | 16801 ft | 292 kts | 79° |
| 2026-04-21 20:38 | 8.44994 | 9.15550 | 16801 ft | 292 kts | 79° |
| 2026-04-21 20:38 | 8.45413 | 9.17559 | 16800 ft | 292 kts | 79° |
| 2026-04-21 20:39 | 8.45827 | 9.19546 | 16798 ft | 292 kts | 79° |
| 2026-04-21 20:39 | 8.46241 | 9.21554 | 16802 ft | 291 kts | 79° |
| 2026-04-21 20:39 | 8.46653 | 9.23557 | 16792 ft | 291 kts | 79° |
| 2026-04-21 20:39 | 8.47067 | 9.25556 | 16795 ft | 291 kts | 79° |
| 2026-04-21 20:40 | 8.47483 | 9.27559 | 16799 ft | 291 kts | 79° |
| 2026-04-21 20:40 | 8.47899 | 9.29563 | 16802 ft | 291 kts | 79° |
| 2026-04-21 20:40 | 8.48314 | 9.31560 | 16801 ft | 291 kts | 79° |
| 2026-04-21 20:40 | 8.48729 | 9.33560 | 16798 ft | 291 kts | 79° |
| 2026-04-21 20:41 | 8.49146 | 9.35566 | 16791 ft | 291 kts | 79° |
| 2026-04-21 20:41 | 8.49561 | 9.37564 | 16792 ft | 291 kts | 79° |
| 2026-04-21 20:41 | 8.49976 | 9.39563 | 16799 ft | 291 kts | 79° |
| 2026-04-21 20:41 | 8.50391 | 9.41564 | 16801 ft | 291 kts | 79° |
| 2026-04-21 20:42 | 8.50800 | 9.43538 | 16788 ft | 291 kts | 79° |
| 2026-04-21 20:42 | 8.51215 | 9.45538 | 16791 ft | 291 kts | 79° |
| 2026-04-21 20:42 | 8.51630 | 9.47541 | 16791 ft | 291 kts | 79° |
| 2026-04-21 20:42 | 8.52042 | 9.49540 | 16793 ft | 291 kts | 78° |
| 2026-04-21 20:43 | 8.52457 | 9.51540 | 16789 ft | 290 kts | 79° |
| 2026-04-21 20:43 | 8.52870 | 9.53539 | 16797 ft | 290 kts | 79° |
| 2026-04-21 20:43 | 8.53280 | 9.55527 | 16799 ft | 289 kts | 79° |
| 2026-04-21 20:43 | 8.53691 | 9.57519 | 16793 ft | 289 kts | 79° |
| 2026-04-21 20:44 | 8.54101 | 9.59483 | 16794 ft | 289 kts | 79° |
| 2026-04-21 20:44 | 8.54510 | 9.61472 | 16796 ft | 289 kts | 79° |
| 2026-04-21 20:44 | 8.54925 | 9.63460 | 16797 ft | 289 kts | 79° |
| 2026-04-21 20:44 | 8.55333 | 9.65444 | 16781 ft | 289 kts | 79° |
| 2026-04-21 20:45 | 8.55742 | 9.67432 | 16795 ft | 288 kts | 79° |
| 2026-04-21 20:45 | 8.56151 | 9.69414 | 16793 ft | 288 kts | 79° |
| 2026-04-21 20:45 | 8.56569 | 9.71401 | 16795 ft | 288 kts | 79° |
| 2026-04-21 20:45 | 8.56988 | 9.73385 | 16794 ft | 289 kts | 78° |
| 2026-04-21 20:46 | 8.57545 | 9.75343 | 16794 ft | 289 kts | 73° |
| 2026-04-21 20:46 | 8.57977 | 9.76617 | 16790 ft | 289 kts | 72° |
| 2026-04-21 20:46 | 8.58643 | 9.78529 | 16791 ft | 289 kts | 72° |
| 2026-04-21 20:46 | 8.59289 | 9.80451 | 16791 ft | 289 kts | 73° |
| 2026-04-21 20:47 | 8.60099 | 9.83017 | 16787 ft | 289 kts | 74° |
| 2026-04-21 20:47 | 8.60513 | 9.84328 | 16785 ft | 289 kts | 73° |
| 2026-04-21 20:47 | 8.61130 | 9.86267 | 16792 ft | 290 kts | 73° |
| 2026-04-21 20:47 | 8.61745 | 9.88206 | 16784 ft | 290 kts | 73° |
| 2026-04-21 20:48 | 8.62362 | 9.90148 | 16788 ft | 290 kts | 73° |
| 2026-04-21 20:48 | 8.62977 | 9.92089 | 16790 ft | 290 kts | 73° |
| 2026-04-21 20:48 | 8.63593 | 9.94027 | 16786 ft | 290 kts | 73° |
| 2026-04-21 20:48 | 8.64201 | 9.95947 | 16788 ft | 290 kts | 73° |
| 2026-04-21 20:49 | 8.64817 | 9.97888 | 16787 ft | 290 kts | 73° |
| 2026-04-21 20:49 | 8.65432 | 9.99829 | 16786 ft | 290 kts | 73° |
| 2026-04-21 20:49 | 8.66048 | 10.01775 | 16777 ft | 290 kts | 73° |
| 2026-04-21 20:49 | 8.66663 | 10.03717 | 16790 ft | 290 kts | 73° |
| 2026-04-21 20:50 | 8.67279 | 10.05660 | 16784 ft | 290 kts | 73° |
| 2026-04-21 20:50 | 8.67894 | 10.07600 | 16782 ft | 290 kts | 73° |
| 2026-04-21 20:50 | 8.68502 | 10.09513 | 16786 ft | 290 kts | 73° |
| 2026-04-21 20:50 | 8.69124 | 10.11475 | 16785 ft | 290 kts | 73° |
| 2026-04-21 20:51 | 8.69731 | 10.13393 | 16777 ft | 290 kts | 73° |
| 2026-04-21 20:51 | 8.70341 | 10.15322 | 16781 ft | 285 kts | 73° |
| 2026-04-21 20:51 | 8.70941 | 10.17221 | 16774 ft | 282 kts | 73° |
| 2026-04-21 20:51 | 8.71541 | 10.19116 | 16785 ft | 284 kts | 73° |
| 2026-04-21 20:52 | 8.72146 | 10.21027 | 16783 ft | 286 kts | 73° |
| 2026-04-21 20:52 | 8.72753 | 10.22947 | 16783 ft | 287 kts | 73° |
| 2026-04-21 20:52 | 8.73361 | 10.24870 | 16773 ft | 288 kts | 73° |
| 2026-04-21 20:52 | 8.73972 | 10.26804 | 16773 ft | 288 kts | 73° |
| 2026-04-21 20:53 | 8.74590 | 10.28738 | 16778 ft | 289 kts | 73° |
| 2026-04-21 20:53 | 8.75201 | 10.30673 | 16779 ft | 289 kts | 74° |
| 2026-04-21 20:53 | 8.75802 | 10.32596 | 16778 ft | 290 kts | 74° |
| 2026-04-21 20:53 | 8.76408 | 10.34541 | 16777 ft | 290 kts | 73° |
| 2026-04-21 20:54 | 8.77018 | 10.36486 | 16773 ft | 290 kts | 73° |
| 2026-04-21 20:54 | 8.77631 | 10.38426 | 16777 ft | 290 kts | 73° |
| 2026-04-21 20:54 | 8.78245 | 10.40372 | 16774 ft | 290 kts | 73° |
| 2026-04-21 20:54 | 8.78865 | 10.42323 | 16764 ft | 291 kts | 73° |
| 2026-04-21 20:55 | 8.79480 | 10.44267 | 16772 ft | 291 kts | 73° |
| 2026-04-21 20:55 | 8.80099 | 10.46217 | 16764 ft | 291 kts | 73° |
| 2026-04-21 20:55 | 8.80719 | 10.48167 | 16772 ft | 291 kts | 73° |
| 2026-04-21 20:55 | 8.81335 | 10.50119 | 16766 ft | 291 kts | 73° |
| 2026-04-21 20:56 | 8.81951 | 10.52068 | 16772 ft | 291 kts | 73° |
| 2026-04-21 20:56 | 8.82570 | 10.54020 | 16776 ft | 291 kts | 73° |
| 2026-04-21 20:56 | 8.83188 | 10.55969 | 16770 ft | 291 kts | 73° |
| 2026-04-21 20:56 | 8.83797 | 10.57892 | 16764 ft | 291 kts | 73° |
| 2026-04-21 20:57 | 8.84416 | 10.59843 | 16764 ft | 291 kts | 73° |
| 2026-04-21 20:57 | 8.85032 | 10.61792 | 16774 ft | 291 kts | 73° |
| 2026-04-21 20:57 | 8.85648 | 10.63743 | 16773 ft | 291 kts | 73° |
| 2026-04-21 20:57 | 8.86265 | 10.65695 | 16773 ft | 291 kts | 73° |
| 2026-04-21 20:58 | 8.86896 | 10.67641 | 16773 ft | 291 kts | 73° |
| 2026-04-21 20:58 | 8.87542 | 10.69594 | 16767 ft | 291 kts | 73° |
| 2026-04-21 20:58 | 8.88193 | 10.71534 | 16759 ft | 291 kts | 72° |
| 2026-04-21 20:58 | 8.88831 | 10.73461 | 16772 ft | 291 kts | 73° |
| 2026-04-21 20:59 | 8.89461 | 10.75406 | 16768 ft | 291 kts | 73° |
| 2026-04-21 20:59 | 8.90090 | 10.77351 | 16761 ft | 291 kts | 73° |
| 2026-04-21 20:59 | 8.90719 | 10.79297 | 16766 ft | 291 kts | 73° |
| 2026-04-21 20:59 | 8.91346 | 10.81240 | 16773 ft | 291 kts | 73° |
| 2026-04-21 21:00 | 8.91976 | 10.83188 | 16772 ft | 291 kts | 73° |
| 2026-04-21 21:00 | 8.92603 | 10.85139 | 16771 ft | 291 kts | 73° |
| 2026-04-21 21:00 | 8.93232 | 10.87084 | 16768 ft | 291 kts | 73° |
| 2026-04-21 21:00 | 8.93860 | 10.89029 | 16772 ft | 291 kts | 73° |
| 2026-04-21 21:01 | 8.94486 | 10.90972 | 16764 ft | 291 kts | 73° |
| 2026-04-21 21:01 | 8.95113 | 10.92919 | 16760 ft | 291 kts | 73° |
| 2026-04-21 21:01 | 8.95741 | 10.94865 | 16771 ft | 291 kts | 73° |
| 2026-04-21 21:01 | 8.96367 | 10.96807 | 16776 ft | 291 kts | 73° |
| 2026-04-21 21:02 | 8.96987 | 10.98729 | 16773 ft | 291 kts | 73° |
| 2026-04-21 21:02 | 8.97612 | 11.00673 | 16768 ft | 291 kts | 73° |
| 2026-04-21 21:02 | 8.98241 | 11.02622 | 16770 ft | 290 kts | 73° |
| 2026-04-21 21:02 | 8.98866 | 11.04565 | 16770 ft | 290 kts | 73° |
| 2026-04-21 21:03 | 8.99490 | 11.06505 | 16771 ft | 290 kts | 73° |
| 2026-04-21 21:03 | 9.00116 | 11.08445 | 16769 ft | 290 kts | 73° |
| 2026-04-21 21:03 | 9.00743 | 11.10389 | 16756 ft | 290 kts | 73° |
| 2026-04-21 21:03 | 9.01367 | 11.12332 | 16769 ft | 290 kts | 73° |
| 2026-04-21 21:04 | 9.01992 | 11.14276 | 16760 ft | 290 kts | 73° |
| 2026-04-21 21:04 | 9.02615 | 11.16221 | 16775 ft | 290 kts | 73° |
| 2026-04-21 21:04 | 9.03242 | 11.18160 | 16773 ft | 290 kts | 74° |
| 2026-04-21 21:04 | 9.03859 | 11.20080 | 16777 ft | 290 kts | 73° |
| 2026-04-21 21:05 | 9.04482 | 11.22026 | 16778 ft | 290 kts | 73° |
| 2026-04-21 21:05 | 9.05110 | 11.23976 | 16765 ft | 290 kts | 74° |
| 2026-04-21 21:05 | 9.05737 | 11.25921 | 16779 ft | 290 kts | 74° |
| 2026-04-21 21:05 | 9.06359 | 11.27865 | 16781 ft | 290 kts | 73° |
| 2026-04-21 21:06 | 9.06981 | 11.29805 | 16779 ft | 290 kts | 74° |
| 2026-04-21 21:06 | 9.07608 | 11.31745 | 16782 ft | 290 kts | 74° |
| 2026-04-21 21:06 | 9.08229 | 11.33683 | 16783 ft | 290 kts | 73° |
| 2026-04-21 21:06 | 9.08849 | 11.35621 | 16784 ft | 290 kts | 74° |
| 2026-04-21 21:07 | 9.09467 | 11.37539 | 16777 ft | 290 kts | 74° |
| 2026-04-21 21:07 | 9.10092 | 11.39482 | 16785 ft | 290 kts | 73° |
| 2026-04-21 21:07 | 9.10710 | 11.41422 | 16780 ft | 290 kts | 73° |
| 2026-04-21 21:07 | 9.11336 | 11.43364 | 16788 ft | 290 kts | 74° |
| 2026-04-21 21:08 | 9.11960 | 11.45305 | 16788 ft | 290 kts | 74° |
| 2026-04-21 21:08 | 9.12582 | 11.47250 | 16790 ft | 290 kts | 73° |
| 2026-04-21 21:08 | 9.13202 | 11.49189 | 16788 ft | 290 kts | 74° |
| 2026-04-21 21:08 | 9.13828 | 11.51131 | 16788 ft | 290 kts | 74° |
| 2026-04-21 21:09 | 9.14450 | 11.53075 | 16790 ft | 290 kts | 73° |
| 2026-04-21 21:09 | 9.15070 | 11.55018 | 16788 ft | 290 kts | 74° |
| 2026-04-21 21:09 | 9.15693 | 11.56958 | 16780 ft | 290 kts | 74° |
| 2026-04-21 21:09 | 9.16311 | 11.58878 | 16788 ft | 290 kts | 74° |
| 2026-04-21 21:10 | 9.16932 | 11.60822 | 16789 ft | 290 kts | 73° |
| 2026-04-21 21:10 | 9.17548 | 11.62755 | 16792 ft | 290 kts | 73° |
| 2026-04-21 21:10 | 9.18174 | 11.64706 | 16791 ft | 290 kts | 74° |
| 2026-04-21 21:10 | 9.18799 | 11.66649 | 16794 ft | 290 kts | 74° |
| 2026-04-21 21:11 | 9.19417 | 11.68591 | 16789 ft | 290 kts | 73° |
| 2026-04-21 21:11 | 9.20038 | 11.70532 | 16789 ft | 290 kts | 74° |
| 2026-04-21 21:11 | 9.20659 | 11.72470 | 16790 ft | 290 kts | 74° |
| 2026-04-21 21:11 | 9.21283 | 11.74414 | 16789 ft | 289 kts | 73° |
| 2026-04-21 21:12 | 9.21900 | 11.76356 | 16787 ft | 290 kts | 73° |
| 2026-04-21 21:12 | 9.22520 | 11.78295 | 16783 ft | 290 kts | 74° |
| 2026-04-21 21:12 | 9.23144 | 11.80234 | 16786 ft | 289 kts | 74° |
| 2026-04-21 21:12 | 9.23764 | 11.82177 | 16778 ft | 289 kts | 73° |
| 2026-04-21 21:13 | 9.24374 | 11.84093 | 16787 ft | 289 kts | 73° |
| 2026-04-21 21:13 | 9.24993 | 11.86030 | 16787 ft | 289 kts | 74° |
| 2026-04-21 21:13 | 9.25614 | 11.87968 | 16782 ft | 289 kts | 73° |
| 2026-04-21 21:13 | 9.26232 | 11.89912 | 16783 ft | 290 kts | 73° |
| 2026-04-21 21:14 | 9.26852 | 11.91854 | 16772 ft | 290 kts | 74° |
| 2026-04-21 21:14 | 9.27474 | 11.93794 | 16781 ft | 289 kts | 74° |
| 2026-04-21 21:14 | 9.28092 | 11.95733 | 16786 ft | 289 kts | 73° |
| 2026-04-21 21:14 | 9.28710 | 11.97675 | 16773 ft | 290 kts | 73° |
| 2026-04-21 21:15 | 9.29320 | 11.99589 | 16784 ft | 290 kts | 74° |
| 2026-04-21 21:15 | 9.29941 | 12.01529 | 16780 ft | 290 kts | 74° |
| 2026-04-21 21:15 | 9.30562 | 12.03475 | 16781 ft | 290 kts | 73° |
| 2026-04-21 21:15 | 9.31181 | 12.05419 | 16572 ft | 286 kts | 73° |
| 2026-04-21 21:16 | 9.31761 | 12.07251 | 15964 ft | 261 kts | 73° |
| 2026-04-21 21:16 | 9.32304 | 12.08947 | 15293 ft | 246 kts | 73° |
| 2026-04-21 21:16 | 9.32819 | 12.10559 | 14633 ft | 234 kts | 73° |
| 2026-04-21 21:16 | 9.33308 | 12.12098 | 13990 ft | 226 kts | 73° |
| 2026-04-21 21:17 | 9.33781 | 12.13588 | 13327 ft | 219 kts | 73° |
| 2026-04-21 21:17 | 9.34239 | 12.15020 | 12628 ft | 214 kts | 72° |
| 2026-04-21 21:17 | 9.34692 | 12.16445 | 11941 ft | 211 kts | 72° |
| 2026-04-21 21:17 | 9.35138 | 12.17858 | 11283 ft | 209 kts | 71° |
| 2026-04-21 21:18 | 9.35579 | 12.19242 | 10759 ft | 209 kts | 71° |
| 2026-04-21 21:18 | 9.36036 | 12.20681 | 10252 ft | 221 kts | 71° |
| 2026-04-21 21:18 | 9.36516 | 12.22198 | 9749 ft | 229 kts | 70° |
| 2026-04-21 21:18 | 9.37013 | 12.23755 | 9213 ft | 236 kts | 70° |
| 2026-04-21 21:19 | 9.37524 | 12.25350 | 8672 ft | 240 kts | 71° |
| 2026-04-21 21:19 | 9.38040 | 12.26979 | 8145 ft | 244 kts | 71° |
| 2026-04-21 21:19 | 9.38555 | 12.28600 | 7623 ft | 246 kts | 71° |
| 2026-04-21 21:19 | 9.39084 | 12.30260 | 7100 ft | 248 kts | 71° |
| 2026-04-21 21:20 | 9.39618 | 12.31927 | 6597 ft | 249 kts | 71° |
| 2026-04-21 21:20 | 9.40151 | 12.33601 | 6096 ft | 250 kts | 71° |
| 2026-04-21 21:20 | 9.40515 | 12.35316 | 5565 ft | 249 kts | 84° |
| 2026-04-21 21:20 | 9.40609 | 12.37075 | 5044 ft | 246 kts | 87° |
| 2026-04-21 21:21 | 9.40567 | 12.38709 | 4533 ft | 222 kts | 103° |
| 2026-04-21 21:21 | 9.39768 | 12.39970 | 4001 ft | 212 kts | 143° |
| 2026-04-21 21:21 | 9.38461 | 12.40531 | 3486 ft | 200 kts | 164° |
| 2026-04-21 21:21 | 9.37143 | 12.40952 | 2976 ft | 198 kts | 165° |
| 2026-04-21 21:22 | 9.35822 | 12.41341 | 2425 ft | 196 kts | 168° |
| 2026-04-21 21:22 | 9.34527 | 12.41564 | 2153 ft | 177 kts | 176° |
| 2026-04-21 21:22 | 9.33302 | 12.41739 | 1830 ft | 184 kts | 174° |
| 2026-04-21 21:22 | 9.32024 | 12.41972 | 1565 ft | 188 kts | 172° |
| 2026-04-21 21:23 | 9.30737 | 12.42197 | 1312 ft | 188 kts | 172° |
| 2026-04-21 21:23 | 9.29500 | 12.42410 | 1078 ft | 168 kts | 169° |
| 2026-04-21 21:23 | 9.28422 | 12.42606 | 855 ft | 147 kts | 171° |
| 2026-04-21 21:23 | 9.27468 | 12.42758 | 693 ft | 132 kts | 169° |
| 2026-04-21 21:24 | 9.26603 | 12.42905 | 609 ft | 120 kts | 171° |
| 2026-04-21 21:24 | 9.25998 | 12.43006 | 596 ft | 40 kts | 168° |
| 2026-04-21 21:24 | 9.25860 | 12.43029 | 598 ft | 17 kts | 174° |
| 2026-04-21 21:24 | 9.25821 | 12.43032 | 598 ft | 16 kts | 175° |
| 2026-04-21 21:25 | 9.25799 | 12.43034 | 598 ft | 14 kts | 176° |
| 2026-04-21 21:25 | 9.25752 | 12.43052 | 597 ft | 11 kts | 172° |
| 2026-04-21 21:25 | 9.25737 | 12.43030 | 597 ft | 2 kts | 285° |
| 2026-04-21 21:26 | 9.25801 | 12.43016 | 597 ft | 24 kts | 353° |
| 2026-04-21 21:26 | 9.25960 | 12.43002 | 597 ft | 20 kts | 355° |
| 2026-04-21 21:26 | 9.26091 | 12.42985 | 594 ft | 18 kts | 353° |
| 2026-04-21 21:26 | 9.26200 | 12.42966 | 593 ft | 14 kts | 352° |
| 2026-04-21 21:27 | 9.26290 | 12.42951 | 594 ft | 12 kts | 351° |
| 2026-04-21 21:27 | 9.26394 | 12.42934 | 594 ft | 25 kts | 351° |
| 2026-04-21 21:27 | 9.26529 | 12.42882 | 595 ft | 17 kts | 311° |
| 2026-04-21 21:27 | 9.26534 | 12.42789 | 596 ft | 12 kts | 261° |
| 2026-04-21 21:28 | 9.26549 | 12.42712 | 591 ft | 6 kts | 319° |
| 2026-04-21 21:28 | 9.26579 | 12.42708 | 591 ft | 5 kts | 356° |
| 2026-04-21 21:28 | 9.26653 | 12.42685 | 591 ft | 5 kts | 288° |
| 2026-04-21 21:29 | 9.26670 | 12.42653 | 587 ft | 2 kts | 352° |
| 2026-04-21 21:29 | 9.26678 | 12.42658 | 586 ft | 0 kts | 40° |